createdAt,value
2023-01-05T00:03:08.089Z,43.23
2023-01-05T00:13:28.096Z,43.34
2023-01-05T00:23:29.530Z,43.35
2023-01-05T00:33:30.908Z,43.46
2023-01-05T00:43:32.327Z,43.43
2023-01-05T00:53:33.717Z,43.40
2023-01-05T01:03:35.128Z,43.39
2023-01-05T01:13:38.758Z,43.41
2023-01-05T01:23:40.132Z,43.30
2023-01-05T01:33:41.541Z,43.35
2023-01-05T01:43:44.065Z,43.33
2023-01-05T01:53:47.040Z,43.38
2023-01-05T02:03:48.445Z,43.57
2023-01-05T02:14:12.004Z,43.41
2023-01-05T02:24:32.064Z,43.48
2023-01-05T02:34:42.788Z,43.46
2023-01-05T02:44:44.391Z,43.37
2023-01-05T02:54:49.017Z,43.44
2023-01-05T03:05:04.096Z,43.39
2023-01-05T03:15:08.522Z,43.52
2023-01-05T03:25:29.028Z,43.48
2023-01-05T03:35:30.502Z,43.41
2023-01-05T03:45:34.450Z,43.48
2023-01-05T03:55:36.018Z,43.48
2023-01-05T04:05:37.555Z,43.53
2023-01-05T04:15:40.167Z,43.61
2023-01-05T04:25:41.573Z,43.61
2023-01-05T04:35:42.978Z,43.52
2023-01-05T04:45:47.581Z,43.72
2023-01-05T04:55:48.980Z,43.61
2023-01-05T05:05:50.369Z,43.69
2023-01-05T05:15:51.913Z,43.73
2023-01-05T05:25:53.321Z,43.47
2023-01-05T05:35:54.741Z,43.19
2023-01-05T05:45:56.129Z,42.85
2023-01-05T05:55:57.515Z,42.46
2023-01-05T06:05:58.929Z,42.51
2023-01-05T06:16:00.353Z,42.31
2023-01-05T06:26:01.819Z,42.25
2023-01-05T06:36:03.215Z,42.17
2023-01-05T06:46:04.717Z,42.49
2023-01-05T06:56:06.350Z,42.74
2023-01-05T07:06:14.445Z,42.84
2023-01-05T07:16:16.983Z,42.95
2023-01-05T07:26:18.400Z,43.00
2023-01-05T07:36:20.232Z,42.75
2023-01-05T07:46:21.682Z,42.75
2023-01-05T07:56:23.229Z,42.93
2023-01-05T08:06:25.247Z,43.04
2023-01-05T08:16:27.292Z,42.94
2023-01-05T08:26:28.743Z,43.12
2023-01-05T08:36:33.651Z,43.10
2023-01-05T08:46:35.357Z,43.17
2023-01-05T08:56:39.275Z,43.12
2023-01-05T09:06:41.439Z,43.09
2023-01-05T09:17:05.858Z,43.15
2023-01-05T09:27:05.505Z,42.95
2023-01-05T09:37:06.900Z,43.08
2023-01-05T09:47:30.511Z,43.14
2023-01-05T09:57:31.939Z,43.15
2023-01-05T10:07:45.584Z,43.23
2023-01-05T10:17:47.123Z,43.06
2023-01-05T10:28:09.682Z,43.03
2023-01-05T10:38:23.219Z,43.08
2023-01-05T10:48:31.818Z,43.04
2023-01-05T10:58:34.914Z,42.96
2023-01-05T11:08:37.085Z,42.91
2023-01-05T11:18:49.569Z,42.93
2023-01-05T11:29:10.280Z,42.79
2023-01-05T11:39:19.562Z,42.90
2023-01-05T11:49:21.056Z,42.70
2023-01-05T11:59:29.794Z,42.74
2023-01-05T12:09:35.054Z,42.74
2023-01-05T12:19:56.158Z,42.60
2023-01-05T12:40:49.965Z,42.56
2023-01-05T12:51:21.764Z,42.53
2023-01-05T13:01:25.600Z,42.48
2023-01-05T13:11:38.382Z,42.73
2023-01-05T13:21:41.696Z,42.60
2023-01-05T13:31:53.400Z,42.65
2023-01-05T13:42:30.397Z,42.61
2023-01-05T13:53:06.121Z,42.49
2023-01-05T14:03:10.307Z,42.66
2023-01-05T14:13:41.115Z,42.54
2023-01-05T14:23:42.336Z,42.63
2023-01-05T14:34:07.549Z,42.61
2023-01-05T14:44:23.332Z,42.80
2023-01-05T14:55:05.830Z,42.77
2023-01-05T15:05:16.447Z,42.81
2023-01-05T15:15:40.790Z,42.72
2023-01-05T15:26:08.399Z,42.89
2023-01-05T15:36:31.555Z,42.96
2023-01-05T15:46:33.294Z,42.98
2023-01-05T15:56:36.912Z,43.09
2023-01-05T16:06:39.448Z,43.09
2023-01-05T16:16:53.234Z,43.10
2023-01-05T16:26:55.542Z,43.17
2023-01-05T16:37:23.998Z,43.40
2023-01-05T16:47:38.615Z,43.29
2023-01-05T16:57:41.887Z,43.28
2023-01-05T17:07:44.337Z,43.33
2023-01-05T17:17:45.865Z,43.43
2023-01-05T17:27:47.920Z,43.43
2023-01-05T17:37:49.315Z,43.39
2023-01-05T17:47:50.776Z,43.43
2023-01-05T17:57:52.162Z,43.44
2023-01-05T18:07:53.549Z,43.49
2023-01-05T18:17:58.890Z,43.64
2023-01-05T18:28:00.659Z,43.62
2023-01-05T18:38:04.863Z,43.59
2023-01-05T18:48:06.500Z,43.76
2023-01-05T18:58:08.132Z,43.72
2023-01-05T19:08:10.303Z,43.82
2023-01-05T19:18:11.684Z,43.98
2023-01-05T19:28:13.062Z,44.00
2023-01-05T19:38:14.462Z,43.98
2023-01-05T19:48:15.850Z,44.17
2023-01-05T19:58:17.247Z,44.21
2023-01-05T20:08:18.628Z,44.23
2023-01-05T20:18:20.005Z,44.26
2023-01-05T20:28:21.389Z,44.18
2023-01-05T20:38:22.830Z,44.24
2023-01-05T20:48:24.368Z,44.23
2023-01-05T20:58:25.969Z,44.19
2023-01-05T21:08:27.341Z,44.26
2023-01-05T21:18:28.858Z,44.23
2023-01-05T21:28:30.262Z,44.15
2023-01-05T21:39:01.338Z,44.25
2023-01-05T21:48:53.013Z,44.19
2023-01-05T21:58:54.903Z,44.22
2023-01-05T22:08:56.277Z,44.23
2023-01-05T22:18:57.646Z,44.07
2023-01-05T22:28:59.032Z,44.06
2023-01-05T22:39:00.651Z,44.01
2023-01-05T22:49:02.052Z,44.08
2023-01-05T22:59:03.608Z,43.95
2023-01-05T23:09:05.953Z,43.84
2023-01-05T23:19:07.753Z,44.06
2023-01-05T23:29:09.285Z,44.06
2023-01-05T23:39:11.235Z,43.92
2023-01-05T23:49:12.795Z,44.01
2023-01-05T23:59:14.158Z,44.03
